Time;durP1;ratioP1;P1;durP2;ratioP2;P2;SDS_P1;SDS_P2;PMS_P1;PMS_P2;Temp;Humidity;BMP_temperature;BMP_pressure;BME280_temperature;BME280_humidity;BME280_pressure;Samples;Min_cycle;Max_cycle;Signal;HPM_P1;HPM_P2
2021/12/31 00:00:00;;;;;;;1.43;0.20;;;12.00;99.90;;;;;;5114932;28;20404;-85
2021/12/31 00:02:25;;;;;;;1.17;0.70;;;12.00;99.90;;;;;;5114627;28;20422;-86
2021/12/31 00:04:51;;;;;;;1.17;0.40;;;12.00;99.90;;;;;;5114992;28;20249;-85
2021/12/31 00:07:17;;;;;;;1.87;0.60;;;12.00;99.90;;;;;;5114931;28;20173;-85
2021/12/31 00:09:42;;;;;;;1.30;0.73;;;12.00;99.90;;;;;;5114801;28;20171;-85
2021/12/31 00:12:08;;;;;;;2.27;0.77;;;12.00;99.90;;;;;;5114679;28;20787;-85
2021/12/31 00:14:37;;;;;;;4.30;1.10;;;12.00;99.90;;;;;;5114721;28;20249;-85
2021/12/31 00:17:04;;;;;;;2.83;1.90;;;12.00;99.90;;;;;;5114555;28;20400;-85
2021/12/31 00:19:33;;;;;;;2.20;1.20;;;12.00;99.90;;;;;;5114723;28;20915;-85
2021/12/31 00:22:02;;;;;;;3.00;1.77;;;12.10;99.90;;;;;;5114559;28;20484;-85
2021/12/31 00:24:28;;;;;;;2.10;1.40;;;12.10;99.90;;;;;;5114634;28;20434;-85
2021/12/31 00:26:54;;;;;;;3.30;1.80;;;12.10;99.90;;;;;;5114463;28;20461;-85
2021/12/31 00:29:19;;;;;;;3.70;2.77;;;12.10;99.90;;;;;;5114489;28;20164;-84
2021/12/31 00:31:45;;;;;;;3.30;1.67;;;12.10;99.90;;;;;;5113615;28;20240;-86
2021/12/31 00:34:10;;;;;;;4.80;1.90;;;12.10;99.90;;;;;;5114325;28;20208;-85
2021/12/31 00:36:44;;;;;;;4.53;2.47;;;12.10;99.90;;;;;;5114362;28;20625;-85
2021/12/31 00:39:10;;;;;;;3.93;2.83;;;12.10;99.90;;;;;;5114157;28;20254;-85
2021/12/31 00:41:36;;;;;;;3.83;2.20;;;12.10;99.90;;;;;;5114125;28;20778;-85
2021/12/31 00:44:03;;;;;;;6.60;3.47;;;12.10;99.90;;;;;;5114125;28;20490;-85
2021/12/31 00:46:30;;;;;;;6.50;4.03;;;12.10;99.90;;;;;;5114120;28;20463;-85
2021/12/31 00:48:56;;;;;;;6.13;2.90;;;12.10;99.90;;;;;;5113804;28;20896;-86
2021/12/31 00:51:22;;;;;;;8.20;3.47;;;12.20;99.90;;;;;;5113987;28;20412;-85
2021/12/31 00:53:47;;;;;;;6.07;2.83;;;12.10;99.90;;;;;;5113923;28;20563;-85
2021/12/31 00:56:13;;;;;;;6.00;2.97;;;12.20;99.90;;;;;;5113948;28;20162;-85
2021/12/31 00:58:38;;;;;;;5.33;3.03;;;12.10;99.90;;;;;;5113906;28;20224;-84
2021/12/31 01:01:04;;;;;;;5.03;2.57;;;12.10;99.90;;;;;;5113861;28;20260;-85
2021/12/31 01:03:30;;;;;;;3.57;2.60;;;12.20;99.90;;;;;;5113506;28;20218;-85
2021/12/31 01:05:55;;;;;;;3.90;2.20;;;12.10;99.90;;;;;;5113793;28;20257;-85
2021/12/31 01:08:21;;;;;;;8.57;3.70;;;12.10;99.90;;;;;;5113569;28;20513;-86
2021/12/31 01:10:47;;;;;;;6.50;3.83;;;12.20;99.90;;;;;;5113699;28;20177;-86
2021/12/31 01:13:23;;;;;;;6.63;4.07;;;12.10;99.90;;;;;;5113888;28;20247;-85
2021/12/31 01:15:50;;;;;;;8.17;4.33;;;12.20;99.90;;;;;;5113641;28;20178;-85
2021/12/31 01:18:20;;;;;;;5.83;4.50;;;12.20;99.90;;;;;;5094928;28;20418;-85
2021/12/31 01:20:46;;;;;;;8.87;4.97;;;12.20;99.90;;;;;;5095270;28;20502;-85
2021/12/31 01:23:15;;;;;;;6.90;4.80;;;12.20;99.90;;;;;;5113600;28;20515;-84
2021/12/31 01:25:40;;;;;;;9.37;5.77;;;12.20;99.90;;;;;;5113590;28;20166;-85
2021/12/31 01:28:06;;;;;;;8.13;6.40;;;12.20;99.90;;;;;;5113518;28;20414;-85
2021/12/31 01:30:32;;;;;;;9.73;6.73;;;12.20;99.90;;;;;;5095289;28;20611;-85
2021/12/31 01:32:58;;;;;;;7.50;6.10;;;12.20;99.90;;;;;;5113060;28;20224;-84
2021/12/31 01:35:23;;;;;;;8.87;6.33;;;12.20;99.90;;;;;;5113421;28;20169;-84
2021/12/31 01:37:49;;;;;;;8.03;6.00;;;12.20;99.90;;;;;;5113302;28;20213;-86
2021/12/31 01:40:14;;;;;;;8.37;6.57;;;12.10;99.90;;;;;;5113550;28;20197;-85
2021/12/31 01:42:40;;;;;;;9.83;6.53;;;12.20;99.90;;;;;;5113558;28;20180;-86
2021/12/31 01:45:15;;;;;;;8.90;5.47;;;12.10;99.90;;;;;;5095079;28;20173;-87
2021/12/31 01:50:12;;;;;;;10.13;6.57;;;12.20;99.90;;;;;;5113463;28;20415;-86
2021/12/31 01:52:40;;;;;;;12.03;6.20;;;12.10;99.90;;;;;;5113359;28;20970;-86
2021/12/31 01:55:09;;;;;;;10.40;7.23;;;12.20;99.90;;;;;;5094965;28;20474;-86
2021/12/31 01:57:35;;;;;;;9.87;6.20;;;12.10;99.90;;;;;;5113281;28;20423;-86
2021/12/31 02:00:01;;;;;;;9.50;5.13;;;12.10;99.90;;;;;;5095008;28;20479;-86
2021/12/31 02:02:27;;;;;;;10.20;5.53;;;12.10;99.90;;;;;;5113000;28;20172;-86
2021/12/31 02:04:54;;;;;;;10.37;5.83;;;12.10;99.90;;;;;;5095025;28;20415;-85
2021/12/31 02:07:19;;;;;;;9.67;6.30;;;12.20;99.90;;;;;;5113199;28;20182;-86
2021/12/31 02:09:49;;;;;;;12.90;6.63;;;12.10;99.90;;;;;;5113152;28;20441;-86
2021/12/31 02:12:16;;;;;;;10.57;6.00;;;12.10;99.90;;;;;;5094777;28;20664;-86
2021/12/31 02:14:42;;;;;;;8.40;5.30;;;12.20;99.90;;;;;;5095196;28;20438;-86
2021/12/31 02:17:10;;;;;;;9.83;6.60;;;12.20;99.90;;;;;;5112841;28;20410;-86
2021/12/31 02:19:36;;;;;;;10.87;5.13;;;12.20;99.90;;;;;;5114586;28;20419;-86
2021/12/31 02:22:02;;;;;;;9.77;5.07;;;12.20;99.90;;;;;;5116976;28;20822;-86
2021/12/31 02:24:28;;;;;;;11.47;5.20;;;12.20;99.90;;;;;;5116927;28;20464;-86
2021/12/31 02:26:54;;;;;;;9.80;4.63;;;12.20;99.90;;;;;;5116898;28;20419;-86
2021/12/31 02:29:24;;;;;;;19.03;5.90;;;12.20;99.90;;;;;;5116851;28;20177;-86
2021/12/31 02:31:50;;;;;;;7.37;5.07;;;12.20;99.90;;;;;;5098176;28;20655;-86
2021/12/31 02:34:16;;;;;;;13.30;4.60;;;12.20;99.90;;;;;;5116699;28;20475;-86
2021/12/31 02:36:41;;;;;;;10.07;4.60;;;12.30;99.90;;;;;;5116802;28;20170;-85
2021/12/31 02:39:07;;;;;;;11.10;5.40;;;12.20;99.90;;;;;;5116585;28;20694;-84
2021/12/31 02:41:33;;;;;;;10.40;6.10;;;12.20;99.90;;;;;;5098393;28;20200;-85
2021/12/31 02:43:58;;;;;;;9.40;5.10;;;12.30;99.90;;;;;;5116430;28;20172;-85
2021/12/31 02:46:24;;;;;;;10.10;5.80;;;12.20;99.90;;;;;;5116011;28;20181;-85
2021/12/31 02:48:56;;;;;;;13.00;6.80;;;12.30;99.90;;;;;;5116396;28;20577;-85
2021/12/31 02:51:26;;;;;;;8.30;6.37;;;12.30;99.90;;;;;;5098128;28;20645;-85
2021/12/31 02:53:54;;;;;;;8.53;5.90;;;12.30;99.90;;;;;;5097862;28;21037;-85
2021/12/31 02:56:20;;;;;;;9.73;7.07;;;12.30;99.90;;;;;;5116233;28;20534;-86
2021/12/31 02:58:45;;;;;;;10.30;8.27;;;12.20;99.90;;;;;;5116231;28;20425;-86
2021/12/31 03:01:12;;;;;;;8.83;7.80;;;12.30;99.90;;;;;;5115783;28;20924;-86
2021/12/31 03:03:40;;;;;;;7.33;6.60;;;12.30;99.90;;;;;;5116168;28;20418;-86
2021/12/31 03:06:07;;;;;;;11.77;6.10;;;12.30;99.90;;;;;;5116161;28;20407;-87
2021/12/31 03:08:40;;;;;;;12.43;7.43;;;12.30;99.90;;;;;;5115912;28;20406;-87
2021/12/31 03:11:08;;;;;;;14.23;7.00;;;12.40;99.90;;;;;;5116007;28;20476;-86
2021/12/31 03:13:35;;;;;;;11.03;6.87;;;12.30;99.90;;;;;;5115969;28;20478;-86
2021/12/31 03:16:01;;;;;;;8.63;6.27;;;12.40;99.90;;;;;;5115977;28;20455;-86
2021/12/31 03:18:27;;;;;;;9.00;5.40;;;12.30;99.90;;;;;;5115514;28;20456;-86
2021/12/31 03:20:57;;;;;;;9.30;6.07;;;12.30;99.90;;;;;;5097523;28;20420;-87
2021/12/31 03:23:24;;;;;;;9.10;5.57;;;12.30;99.90;;;;;;5097633;28;20423;-87
2021/12/31 03:25:50;;;;;;;9.90;5.03;;;12.30;99.90;;;;;;5097547;28;20442;-86
2021/12/31 03:28:16;;;;;;;7.13;4.97;;;12.30;99.90;;;;;;5115659;28;20415;-87
2021/12/31 03:30:42;;;;;;;15.23;6.03;;;12.40;99.90;;;;;;5114465;28;21002;-86
2021/12/31 03:33:07;;;;;;;15.17;6.37;;;12.40;99.90;;;;;;5115153;28;20716;-86
2021/12/31 03:35:33;;;;;;;6.83;4.53;;;12.40;99.90;;;;;;5115541;28;20545;-87
2021/12/31 03:37:58;;;;;;;7.87;3.93;;;12.40;99.90;;;;;;5097121;28;20326;-86
2021/12/31 03:40:24;;;;;;;12.20;4.40;;;12.40;99.90;;;;;;5097100;28;20226;-86
2021/12/31 03:42:49;;;;;;;7.17;3.33;;;12.30;99.90;;;;;;5115328;28;20181;-85
2021/12/31 03:45:15;;;;;;;8.10;4.10;;;12.30;99.90;;;;;;5114183;28;20170;-85
2021/12/31 03:47:41;;;;;;;9.80;3.50;;;12.30;99.90;;;;;;5114630;28;20255;-85
2021/12/31 03:50:07;;;;;;;6.90;3.47;;;12.40;99.90;;;;;;5115163;28;20173;-84
2021/12/31 03:52:38;;;;;;;4.27;2.90;;;12.40;99.90;;;;;;5115089;28;20474;-85
2021/12/31 03:55:05;;;;;;;6.73;3.10;;;12.40;99.90;;;;;;5096860;28;20821;-85
2021/12/31 03:57:31;;;;;;;7.77;3.00;;;12.40;99.90;;;;;;5096765;28;20423;-86
2021/12/31 03:59:56;;;;;;;6.80;2.83;;;12.30;99.90;;;;;;5115195;28;20767;-85
2021/12/31 04:02:22;;;;;;;8.87;2.77;;;12.40;99.90;;;;;;5114597;28;20177;-84
2021/12/31 04:04:47;;;;;;;8.10;4.80;;;12.30;99.90;;;;;;5114997;28;20215;-85
2021/12/31 04:07:13;;;;;;;4.80;2.53;;;12.30;99.90;;;;;;5114866;28;20174;-85
2021/12/31 04:09:39;;;;;;;5.73;2.97;;;12.30;99.90;;;;;;5114959;28;20174;-84
2021/12/31 04:12:04;;;;;;;6.50;2.80;;;12.30;99.90;;;;;;5114809;28;20623;-85
2021/12/31 04:14:30;;;;;;;6.30;3.07;;;12.30;99.90;;;;;;5096498;28;20177;-85
2021/12/31 04:16:56;;;;;;;12.10;4.03;;;12.20;99.90;;;;;;5114363;28;20408;-85
2021/12/31 04:19:21;;;;;;;4.57;2.97;;;12.20;99.90;;;;;;5114637;28;20174;-86
2021/12/31 04:21:49;;;;;;;6.47;2.40;;;12.20;99.90;;;;;;5114652;28;20633;-84
2021/12/31 04:24:26;;;;;;;6.17;3.20;;;12.20;99.90;;;;;;5114579;28;20218;-85
2021/12/31 04:26:52;;;;;;;7.90;2.57;;;12.30;99.90;;;;;;5114429;28;20449;-84
2021/12/31 04:29:18;;;;;;;11.20;3.20;;;12.30;99.90;;;;;;5096168;28;20931;-85
2021/12/31 04:31:43;;;;;;;6.50;2.47;;;12.30;99.90;;;;;;5095845;28;20177;-85
2021/12/31 04:34:09;;;;;;;6.00;2.20;;;12.30;99.90;;;;;;5114482;28;20529;-85
2021/12/31 04:36:34;;;;;;;5.07;2.77;;;12.30;99.90;;;;;;5096143;28;20256;-85
2021/12/31 04:39:00;;;;;;;4.10;2.00;;;12.30;99.90;;;;;;5095934;28;20240;-85
2021/12/31 04:41:26;;;;;;;10.00;2.93;;;12.30;99.90;;;;;;5114107;28;20161;-85
2021/12/31 04:43:51;;;;;;;6.13;2.20;;;12.30;99.90;;;;;;5114059;28;20174;-85
2021/12/31 04:46:17;;;;;;;7.60;2.73;;;12.30;99.90;;;;;;5096068;28;20520;-85
2021/12/31 04:48:42;;;;;;;16.33;3.30;;;12.30;99.90;;;;;;5114317;28;20219;-84
2021/12/31 04:51:08;;;;;;;7.23;2.43;;;12.40;99.90;;;;;;5124507;28;20170;-84
2021/12/31 04:53:34;;;;;;;7.30;1.20;;;12.40;99.90;;;;;;5114532;28;20701;-84
2021/12/31 04:55:59;;;;;;;7.17;2.60;;;12.40;99.90;;;;;;5096086;28;20284;-84
2021/12/31 04:58:25;;;;;;;8.23;1.80;;;12.40;99.90;;;;;;5114584;28;20167;-84
2021/12/31 05:00:51;;;;;;;4.73;2.23;;;12.40;99.90;;;;;;5114149;28;20197;-84
2021/12/31 05:03:16;;;;;;;5.70;2.03;;;12.40;99.90;;;;;;5113969;28;20202;-83
2021/12/31 05:05:42;;;;;;;6.57;1.77;;;12.40;99.90;;;;;;5095667;28;20174;-84
2021/12/31 05:08:08;;;;;;;9.53;2.37;;;12.30;99.90;;;;;;5095644;28;20189;-83
2021/12/31 05:10:34;;;;;;;4.50;1.77;;;12.40;99.90;;;;;;5113859;28;20173;-84
2021/12/31 05:13:00;;;;;;;5.87;1.40;;;12.40;99.90;;;;;;5113713;28;20204;-83
2021/12/31 05:15:28;;;;;;;4.53;1.60;;;12.40;99.90;;;;;;5113814;28;20504;-83
2021/12/31 05:17:54;;;;;;;4.50;1.67;;;12.40;99.90;;;;;;5113392;28;20418;-84
2021/12/31 05:20:20;;;;;;;6.67;2.10;;;12.30;99.90;;;;;;5113681;28;20408;-84
2021/12/31 05:22:46;;;;;;;6.50;3.77;;;12.30;99.90;;;;;;5113534;28;20919;-85
2021/12/31 05:25:12;;;;;;;9.27;1.40;;;12.40;99.90;;;;;;5113627;28;20766;-85
2021/12/31 05:27:38;;;;;;;6.80;2.07;;;12.40;99.90;;;;;;5113701;28;20523;-87
2021/12/31 05:30:05;;;;;;;4.57;1.50;;;12.40;99.90;;;;;;5095574;28;20572;-86
2021/12/31 05:32:31;;;;;;;6.60;1.80;;;12.40;99.90;;;;;;5094991;28;20209;-86
2021/12/31 05:34:57;;;;;;;5.57;1.87;;;12.40;99.90;;;;;;5113668;28;20423;-86
2021/12/31 05:37:22;;;;;;;7.73;3.10;;;12.40;99.90;;;;;;5113362;28;20227;-86
2021/12/31 05:39:48;;;;;;;5.53;2.40;;;12.40;99.90;;;;;;5113661;28;20424;-87
2021/12/31 05:42:14;;;;;;;5.13;1.83;;;12.50;99.90;;;;;;5095413;28;20268;-86
2021/12/31 05:44:39;;;;;;;6.47;1.90;;;12.50;99.90;;;;;;5113494;28;20634;-86
2021/12/31 05:47:05;;;;;;;6.20;2.80;;;12.50;99.90;;;;;;5113199;28;20573;-85
2021/12/31 05:49:31;;;;;;;4.43;1.90;;;12.40;99.90;;;;;;5095308;28;20175;-87
2021/12/31 05:51:57;;;;;;;8.33;2.70;;;12.40;99.90;;;;;;5113493;28;20448;-87
2021/12/31 05:54:23;;;;;;;4.90;3.07;;;12.30;99.90;;;;;;5096472;28;20178;-86
2021/12/31 05:56:48;;;;;;;8.57;3.50;;;12.40;99.90;;;;;;5099251;28;20170;-86
2021/12/31 05:59:14;;;;;;;6.50;2.67;;;12.50;99.90;;;;;;5117518;28;20402;-86
2021/12/31 06:01:39;;;;;;;4.27;1.87;;;12.40;99.90;;;;;;5117039;28;20550;-86
2021/12/31 06:04:06;;;;;;;5.50;2.30;;;12.40;99.90;;;;;;5099197;28;20205;-87
2021/12/31 06:06:32;;;;;;;6.13;2.30;;;12.40;99.90;;;;;;5117436;28;20173;-86
2021/12/31 06:08:57;;;;;;;16.87;3.53;;;12.40;99.90;;;;;;5117316;28;20813;-86
2021/12/31 06:11:23;;;;;;;4.43;2.57;;;12.40;99.90;;;;;;5098908;28;20188;-86
2021/12/31 06:14:00;;;;;;;3.70;2.20;;;12.40;99.90;;;;;;5098992;28;20214;-87
2021/12/31 06:16:27;;;;;;;4.73;2.70;;;12.40;99.90;;;;;;5116919;28;20170;-86
2021/12/31 06:18:53;;;;;;;5.17;2.40;;;12.40;99.90;;;;;;5117100;28;20456;-86
2021/12/31 06:21:19;;;;;;;8.20;3.87;;;12.40;99.90;;;;;;5117007;28;20458;-85
2021/12/31 06:23:44;;;;;;;11.23;4.67;;;12.30;99.90;;;;;;5116978;28;20166;-86
2021/12/31 06:26:10;;;;;;;6.80;3.83;;;12.40;99.90;;;;;;5116956;28;20233;-85
2021/12/31 06:28:35;;;;;;;7.17;3.30;;;12.50;99.90;;;;;;5117023;28;20519;-86
2021/12/31 06:31:01;;;;;;;4.80;4.00;;;12.50;99.90;;;;;;5116550;28;20167;-85
2021/12/31 06:33:27;;;;;;;6.73;4.00;;;12.40;99.90;;;;;;5116786;28;20213;-85
2021/12/31 06:35:52;;;;;;;8.43;5.23;;;12.50;99.90;;;;;;5098470;28;20182;-86
2021/12/31 06:38:18;;;;;;;7.23;4.00;;;12.40;99.90;;;;;;5116593;28;20222;-85
2021/12/31 06:40:44;;;;;;;4.17;3.50;;;12.40;99.90;;;;;;5116661;28;20174;-85
2021/12/31 06:43:09;;;;;;;8.50;4.90;;;12.40;99.90;;;;;;5098467;28;20249;-85
2021/12/31 06:45:35;;;;;;;8.27;4.63;;;12.40;99.90;;;;;;5116255;28;20624;-85
2021/12/31 06:48:01;;;;;;;5.70;4.10;;;12.40;99.90;;;;;;5116566;28;20627;-86
2021/12/31 06:50:26;;;;;;;5.17;4.43;;;12.50;99.90;;;;;;5116522;28;20196;-86
2021/12/31 06:52:52;;;;;;;5.63;4.10;;;12.50;99.90;;;;;;5116369;28;20258;-85
2021/12/31 06:55:18;;;;;;;5.37;4.50;;;12.50;99.90;;;;;;5116422;28;20173;-86
2021/12/31 06:57:43;;;;;;;8.03;4.57;;;12.50;99.90;;;;;;5116433;28;20199;-85
2021/12/31 07:00:09;;;;;;;6.37;4.97;;;12.50;99.90;;;;;;5098321;28;20223;-87
2021/12/31 07:02:35;;;;;;;8.23;4.77;;;12.50;99.90;;;;;;5116121;28;20180;-86
2021/12/31 07:05:01;;;;;;;8.13;4.60;;;12.40;99.90;;;;;;5097895;28;20414;-87
2021/12/31 07:07:27;;;;;;;7.53;5.00;;;12.40;99.90;;;;;;5116221;28;20428;-87
2021/12/31 07:09:52;;;;;;;6.47;4.43;;;12.40;99.90;;;;;;5116230;28;20553;-87
2021/12/31 07:12:18;;;;;;;6.40;4.80;;;12.40;99.90;;;;;;5116488;28;20208;-86
2021/12/31 07:14:43;;;;;;;9.43;5.63;;;12.40;99.90;;;;;;5116135;28;20178;-86
2021/12/31 07:17:10;;;;;;;10.23;5.27;;;12.40;99.90;;;;;;5117094;28;20165;-87
2021/12/31 07:19:35;;;;;;;7.33;5.10;;;12.40;99.90;;;;;;5116725;28;20626;-86
2021/12/31 07:22:01;;;;;;;8.03;5.10;;;12.40;99.90;;;;;;5115948;28;20496;-87
2021/12/31 07:24:27;;;;;;;6.83;4.90;;;12.40;99.90;;;;;;5116827;28;20169;-88
2021/12/31 07:26:52;;;;;;;7.67;4.90;;;12.50;99.90;;;;;;5116908;28;20174;-87
2021/12/31 07:29:18;;;;;;;9.50;5.70;;;12.40;99.90;;;;;;5116462;28;20171;-87
2021/12/31 07:31:44;;;;;;;8.30;5.07;;;12.40;99.90;;;;;;5117506;28;20177;-87
2021/12/31 07:34:09;;;;;;;10.53;4.87;;;12.50;99.90;;;;;;5116254;28;20178;-87
2021/12/31 07:36:35;;;;;;;7.77;3.90;;;12.40;99.90;;;;;;5097690;28;20225;-86
2021/12/31 07:39:06;;;;;;;6.67;4.63;;;12.50;99.90;;;;;;5115765;28;20315;-86
2021/12/31 07:41:31;;;;;;;5.73;3.93;;;12.50;99.90;;;;;;5097593;28;20169;-87
2021/12/31 07:43:57;;;;;;;7.80;4.63;;;12.50;99.90;;;;;;5115499;28;20423;-87
2021/12/31 07:46:23;;;;;;;10.50;4.07;;;12.60;99.90;;;;;;5115105;28;20166;-86
2021/12/31 07:48:48;;;;;;;5.67;3.83;;;12.60;99.90;;;;;;5097096;28;20273;-86
2021/12/31 07:51:14;;;;;;;6.07;3.73;;;12.60;99.90;;;;;;5097118;28;20653;-87
2021/12/31 07:53:39;;;;;;;6.77;4.80;;;12.60;99.90;;;;;;5097007;28;20206;-88
2021/12/31 07:56:05;;;;;;;5.07;4.30;;;12.60;99.90;;;;;;5115402;28;20170;-87
2021/12/31 07:58:31;;;;;;;7.80;4.53;;;12.60;99.90;;;;;;5115212;28;20179;-87
2021/12/31 08:00:56;;;;;;;4.73;3.90;;;12.60;99.90;;;;;;5114877;28;20170;-87
2021/12/31 08:03:22;;;;;;;3.67;3.37;;;12.60;99.90;;;;;;5115486;28;20519;-86
2021/12/31 08:05:48;;;;;;;7.07;4.50;;;12.70;99.90;;;;;;5114867;28;20272;-86
2021/12/31 08:08:13;;;;;;;5.07;4.40;;;12.70;99.90;;;;;;5114991;28;20178;-87
2021/12/31 08:10:39;;;;;;;8.60;5.07;;;12.70;99.90;;;;;;5105657;28;20183;-86
2021/12/31 08:13:05;;;;;;;4.87;4.20;;;12.70;99.90;;;;;;5114795;28;20214;-86
2021/12/31 08:15:31;;;;;;;5.40;4.50;;;12.80;99.90;;;;;;5084347;28;20273;-89
2021/12/31 08:17:57;;;;;;;5.27;3.87;;;12.80;99.90;;;;;;5108396;28;20444;-88
2021/12/31 08:20:24;;;;;;;5.47;3.63;;;12.70;99.90;;;;;;5097038;28;20174;-88
2021/12/31 08:22:51;;;;;;;5.10;4.60;;;12.70;99.90;;;;;;5114789;28;20441;-87
2021/12/31 08:25:16;;;;;;;4.87;3.40;;;12.80;99.90;;;;;;5114535;28;21001;-89
2021/12/31 08:27:42;;;;;;;5.83;4.20;;;12.80;99.90;;;;;;5114189;28;20511;-87
2021/12/31 08:30:08;;;;;;;4.77;3.17;;;12.80;99.90;;;;;;5095795;28;20186;-86
2021/12/31 08:32:35;;;;;;;4.23;3.53;;;12.90;99.90;;;;;;5113730;28;20194;-87
2021/12/31 08:35:01;;;;;;;7.07;4.30;;;12.80;99.90;;;;;;5113839;28;20477;-86
2021/12/31 08:37:26;;;;;;;4.77;3.90;;;12.90;99.90;;;;;;5113794;28;20811;-86
2021/12/31 08:39:52;;;;;;;6.87;3.83;;;12.90;99.90;;;;;;5114176;28;20190;-86
2021/12/31 08:42:18;;;;;;;3.90;3.20;;;12.90;99.90;;;;;;5113856;28;20183;-87
2021/12/31 08:44:44;;;;;;;3.93;3.40;;;12.90;99.90;;;;;;5114178;28;20257;-86
2021/12/31 08:47:09;;;;;;;5.67;3.47;;;13.00;99.90;;;;;;5113935;28;20565;-86
2021/12/31 08:49:35;;;;;;;3.47;3.00;;;12.90;99.90;;;;;;5114381;28;20174;-86
2021/12/31 08:52:01;;;;;;;5.90;3.70;;;13.00;99.90;;;;;;5096006;28;20589;-87
2021/12/31 08:54:26;;;;;;;10.43;3.77;;;13.00;99.90;;;;;;5096155;28;20187;-86
2021/12/31 08:56:52;;;;;;;5.50;3.07;;;13.00;99.90;;;;;;5114237;28;20409;-84
2021/12/31 08:59:19;;;;;;;4.30;3.60;;;13.00;99.90;;;;;;5096020;28;20203;-87
2021/12/31 09:01:45;;;;;;;3.80;3.13;;;12.90;99.90;;;;;;5095545;28;20589;-88
2021/12/31 09:04:11;;;;;;;4.47;2.83;;;12.90;99.90;;;;;;5095820;28;20424;-85
2021/12/31 09:06:37;;;;;;;2.83;2.40;;;13.00;99.90;;;;;;5095592;28;20925;-85
2021/12/31 09:09:03;;;;;;;4.60;3.70;;;12.80;99.90;;;;;;5095810;28;20182;-87
2021/12/31 09:11:29;;;;;;;4.30;2.80;;;13.00;99.90;;;;;;5113925;28;20232;-84
2021/12/31 09:13:55;;;;;;;5.13;3.40;;;13.00;99.90;;;;;;5094813;28;20471;-86
2021/12/31 09:16:21;;;;;;;2.30;2.00;;;12.90;99.90;;;;;;5096139;28;20176;-84
2021/12/31 09:18:47;;;;;;;5.13;2.87;;;12.90;99.90;;;;;;5114118;28;20410;-83
2021/12/31 09:21:17;;;;;;;6.00;3.10;;;13.00;99.90;;;;;;5109352;28;20167;-87
2021/12/31 09:23:44;;;;;;;6.17;3.57;;;13.00;99.90;;;;;;5090967;28;20517;-84
2021/12/31 09:26:09;;;;;;;4.33;2.83;;;13.00;99.90;;;;;;5074121;28;21012;-88
2021/12/31 09:28:35;;;;;;;7.03;2.60;;;13.10;99.90;;;;;;5091330;28;20545;-86
2021/12/31 09:31:02;;;;;;;4.40;3.27;;;13.00;99.90;;;;;;5073904;28;20214;-85
2021/12/31 09:33:29;;;;;;;8.33;3.10;;;13.00;99.90;;;;;;5092397;28;20210;-86
2021/12/31 09:35:54;;;;;;;3.37;2.97;;;13.00;99.90;;;;;;5078629;28;20832;-86
2021/12/31 09:38:20;;;;;;;7.73;3.70;;;13.10;99.90;;;;;;5095365;28;20461;-84
2021/12/31 09:40:47;;;;;;;2.50;1.87;;;13.10;99.90;;;;;;5124968;28;20193;-87
2021/12/31 09:43:12;;;;;;;5.67;2.37;;;13.10;99.90;;;;;;5131463;28;20183;-86
2021/12/31 09:45:47;;;;;;;4.07;2.77;;;13.00;99.90;;;;;;5118729;28;20886;-87
2021/12/31 09:48:15;;;;;;;3.60;1.87;;;13.10;99.90;;;;;;5113317;28;20166;-87
2021/12/31 09:50:43;;;;;;;4.37;2.27;;;13.00;99.90;;;;;;5113098;28;20504;-88
2021/12/31 09:53:10;;;;;;;3.50;2.07;;;13.00;99.90;;;;;;5114196;28;20464;-87
2021/12/31 09:55:53;;;;;;;3.33;2.00;;;13.00;99.90;;;;;;5114758;28;20424;-89
2021/12/31 09:58:22;;;;;;;5.00;4.20;;;13.00;99.90;;;;;;5114889;28;20828;-88
2021/12/31 10:00:51;;;;;;;3.97;1.77;;;13.00;99.90;;;;;;5115687;28;20523;-88
2021/12/31 10:03:25;;;;;;;3.63;1.97;;;13.10;99.90;;;;;;5120301;28;20539;-88
2021/12/31 10:06:11;;;;;;;5.50;2.17;;;13.10;99.90;;;;;;5110444;28;20419;-87
2021/12/31 10:08:43;;;;;;;4.10;2.70;;;13.10;99.90;;;;;;5132610;28;20423;-87
2021/12/31 10:11:14;;;;;;;5.97;2.67;;;13.20;99.90;;;;;;5136173;28;20440;-88
2021/12/31 10:13:42;;;;;;;2.93;1.63;;;13.20;99.90;;;;;;5134027;28;20460;-86
2021/12/31 10:16:32;;;;;;;8.37;3.53;;;13.30;99.90;;;;;;5116424;28;20440;-87
2021/12/31 10:19:05;;;;;;;4.63;2.80;;;13.30;99.90;;;;;;5133014;28;20405;-86
2021/12/31 10:21:46;;;;;;;2.53;2.10;;;13.30;99.90;;;;;;5094234;28;20434;-87
2021/12/31 10:24:32;;;;;;;4.60;2.20;;;13.30;99.90;;;;;;5098271;28;20414;-88
2021/12/31 10:27:02;;;;;;;4.20;1.80;;;13.20;99.90;;;;;;5094901;28;20419;-88
2021/12/31 10:29:29;;;;;;;4.83;1.57;;;13.30;99.90;;;;;;5095842;28;20406;-88
2021/12/31 10:31:55;;;;;;;3.73;1.70;;;13.20;99.90;;;;;;5093486;28;20501;-88
2021/12/31 10:34:25;;;;;;;5.97;1.87;;;13.20;99.90;;;;;;5094641;28;20902;-89
2021/12/31 10:36:50;;;;;;;2.30;1.30;;;13.20;99.90;;;;;;5097041;28;20402;-89
2021/12/31 10:39:18;;;;;;;3.10;2.03;;;13.20;99.90;;;;;;5098446;28;20556;-87
2021/12/31 10:41:45;;;;;;;2.73;2.43;;;13.10;99.90;;;;;;5098706;28;20178;-88
2021/12/31 10:44:11;;;;;;;2.60;1.90;;;13.20;99.90;;;;;;5096199;28;20419;-86
2021/12/31 10:46:37;;;;;;;4.80;2.13;;;13.20;99.90;;;;;;5095940;28;20441;-88
2021/12/31 10:49:09;;;;;;;3.87;3.37;;;13.20;99.90;;;;;;5106112;28;20453;-89
2021/12/31 10:51:41;;;;;;;3.47;2.13;;;13.20;99.90;;;;;;5101050;28;20203;-87
2021/12/31 10:54:20;;;;;;;3.50;3.20;;;13.30;99.90;;;;;;5116515;28;20460;-88
2021/12/31 10:56:45;;;;;;;2.97;2.10;;;13.30;99.90;;;;;;5119031;28;20946;-88
2021/12/31 10:59:11;;;;;;;5.43;3.30;;;13.40;99.90;;;;;;5100084;28;20429;-88
2021/12/31 11:01:37;;;;;;;6.20;3.00;;;13.40;99.90;;;;;;5116215;28;20178;-88
2021/12/31 11:04:03;;;;;;;5.77;2.70;;;13.40;99.90;;;;;;5116676;28;20167;-87
2021/12/31 11:06:29;;;;;;;4.17;2.10;;;13.40;99.90;;;;;;5116998;28;20305;-89
2021/12/31 11:08:59;;;;;;;4.10;3.27;;;13.30;99.90;;;;;;5118233;28;20467;-88
2021/12/31 11:11:25;;;;;;;2.50;1.93;;;13.40;99.90;;;;;;5120355;28;20167;-88
2021/12/31 11:13:51;;;;;;;2.90;2.53;;;13.40;99.90;;;;;;5118138;28;20967;-88
2021/12/31 11:16:17;;;;;;;2.50;2.27;;;13.30;99.90;;;;;;5117341;28;20164;-87
2021/12/31 11:18:43;;;;;;;4.00;3.10;;;13.20;99.90;;;;;;5117445;28;20470;-88
2021/12/31 11:21:09;;;;;;;5.17;2.63;;;13.20;99.90;;;;;;5116429;28;20174;-88
2021/12/31 11:23:36;;;;;;;8.10;3.37;;;13.30;99.90;;;;;;5098062;28;20414;-87
2021/12/31 11:26:13;;;;;;;2.87;1.77;;;13.30;99.90;;;;;;5097971;28;20431;-88
2021/12/31 11:28:41;;;;;;;2.47;2.27;;;13.30;99.90;;;;;;5116261;28;20421;-87
2021/12/31 11:31:19;;;;;;;5.43;2.70;;;13.30;99.90;;;;;;5115794;28;20408;-88
2021/12/31 11:34:12;;;;;;;3.43;2.20;;;13.30;99.90;;;;;;5115762;28;20468;-88
2021/12/31 11:36:52;;;;;;;3.87;2.67;;;13.20;99.90;;;;;;5097539;28;20478;-89
2021/12/31 11:39:36;;;;;;;2.63;2.33;;;13.30;99.90;;;;;;5097316;28;20476;-88
2021/12/31 11:42:07;;;;;;;2.70;1.90;;;13.20;99.90;;;;;;5109721;28;20466;-90
2021/12/31 11:44:34;;;;;;;3.30;2.97;;;13.30;99.90;;;;;;5115504;28;20420;-88
2021/12/31 11:47:10;;;;;;;3.30;1.90;;;13.20;99.90;;;;;;5115170;28;20420;-87
2021/12/31 11:49:36;;;;;;;2.63;1.97;;;13.30;99.90;;;;;;5115332;28;20413;-87
2021/12/31 11:52:10;;;;;;;3.90;2.40;;;13.20;99.90;;;;;;5095841;28;20496;-87
2021/12/31 11:54:40;;;;;;;2.70;2.10;;;13.30;99.90;;;;;;5115374;28;20429;-88
2021/12/31 11:57:08;;;;;;;2.50;2.10;;;13.30;99.90;;;;;;5096906;28;20482;-87
2021/12/31 11:59:43;;;;;;;3.13;1.77;;;13.30;99.90;;;;;;5096892;28;20429;-87
2021/12/31 12:02:16;;;;;;;6.50;2.63;;;13.30;99.90;;;;;;5115240;28;20409;-88
2021/12/31 12:05:03;;;;;;;3.53;2.53;;;13.30;99.90;;;;;;5114941;28;20414;-88
2021/12/31 12:07:46;;;;;;;3.80;2.60;;;13.30;99.90;;;;;;5115280;28;20481;-88
2021/12/31 12:10:19;;;;;;;6.30;2.17;;;13.30;99.90;;;;;;5115091;28;20481;-86
2021/12/31 12:12:50;;;;;;;3.07;1.57;;;13.30;99.90;;;;;;5114901;28;20462;-85
2021/12/31 12:15:15;;;;;;;4.40;2.30;;;13.20;99.90;;;;;;5113658;28;20419;-88
2021/12/31 12:17:44;;;;;;;6.87;2.50;;;13.20;99.90;;;;;;5114680;28;20421;-87
2021/12/31 12:20:13;;;;;;;2.77;2.37;;;13.10;99.90;;;;;;5114891;28;20168;-86
2021/12/31 12:22:50;;;;;;;7.33;3.10;;;13.00;99.90;;;;;;5114845;28;20417;-89
2021/12/31 12:25:19;;;;;;;2.70;2.20;;;13.00;99.90;;;;;;5114959;28;20453;-88
2021/12/31 12:27:52;;;;;;;2.20;2.10;;;13.00;99.90;;;;;;5114695;28;20483;-85
2021/12/31 12:30:19;;;;;;;2.00;1.80;;;13.00;99.90;;;;;;5095689;28;20419;-89
2021/12/31 12:35:30;;;;;;;2.33;1.93;;;13.00;99.90;;;;;;5103075;28;20410;-89
2021/12/31 12:37:56;;;;;;;4.53;2.30;;;13.00;99.90;;;;;;5094144;28;20586;-87
2021/12/31 12:40:41;;;;;;;3.00;2.57;;;12.90;99.90;;;;;;5094349;28;20399;-87
2021/12/31 12:43:21;;;;;;;4.10;3.70;;;12.90;99.90;;;;;;5094319;28;20425;-89
2021/12/31 12:45:49;;;;;;;6.37;3.50;;;12.90;99.90;;;;;;5093821;28;20409;-89
2021/12/31 12:48:15;;;;;;;5.53;3.57;;;12.80;99.90;;;;;;5075908;28;20517;-86
2021/12/31 12:50:49;;;;;;;5.90;3.87;;;12.80;99.90;;;;;;5093807;28;20406;-88